Singapore Changi International Airport
WSSS : now visible

Airfield :











YOU CAN JOIN US ON...

 
LOGIN :

Register | Disclaimer

   EN    FR    IT 

 









Legend :    VFR   Marginal VFR   IFR   Intensive IFR   Very Intensive IFR
Visi :
Ceiling :
>= 8 km
>= 3000ft
5 to 8 km
1000 to 3000 ft
1500m to 5 km
500 to 1000 ft
800 to 1500m
200 to 500 ft
< 800m
< 200 ft
Symbols :   Thunderstorms  Fog  Heavy snow  Heavy precipitations  Wind > 20 kt







- Airport Elevation : 22 ft
- IATA code : SIN


WSSS - Singapore Changi International

CURRENT METAR :
  • 172130Z 22004KT 180V250 5000 SHRA FEW012 FEW017CB BKN018TCU 24/21 Q1012 TEMPO TL2200 3000 TSRA

EXPIRED METARs :
  • 172100Z 21005KT 200V320 8000 FEW012 FEW017CB FEW018TCU SCT040 25/22 Q1012 TEMPO FM2115 TL2135 22011G21KT 4500 TSRA
  • 172030Z VRB01KT 8000 FEW018CB FEW020TCU SCT050 BKN150 26/24 Q1012 TEMPO FM2100 TL2130 27010G25KT 3000 TSRA
  • 172000Z 33002KT 9999 FEW020CB SCT050 BKN150 26/25 Q1012 TEMPO FM2045 TL2130 27010G25KT 3000 TSRA
  • 171930Z VRB01KT 9999 FEW018 BKN150 26/24 Q1012 TEMPO FM2045 TL2130 27010G25KT 3000 TSRA FEW018CB BKN150
  • 171900Z VRB02KT 9999 FEW018 BKN150 26/24 Q1012 NOSIG

TAF TAF WSSS
Valid from the 17 at 18:00 until the 19 at 00:00 UTC


171700Z 1718/1900 02008KT 9999 SCT020
TEMPO 1806/1809 3000 TSRA FEW012CB BKN015
WSJC FIR / Asia



MET'MAP, your aeronautical weather chart ! - Copyright ORBIFLY December 2007 - Disclaimer

ORBIFLY MET'MAP TEAM :

Programming & Development : Alexandra Zaïnal
Concept & Development : Baudouin d'Aumeries
Co-Development & Prog : Marc-Olivier Méhu
Technical & hardware support : Manuel Goepfert

Contact : metmap@orbifly.com




SOURCES & CREDITS :

   NOAA       Earth
Advisory